Time;durP1;ratioP1;P1;durP2;ratioP2;P2;SDS_P1;SDS_P2;PMS_P1;PMS_P2;Temp;Humidity;BMP_temperature;BMP_pressure;BME280_temperature;BME280_humidity;BME280_pressure;Samples;Min_cycle;Max_cycle;Signal;HPM_P1;HPM_P2
2023/09/15 00:02:26;;;;;;;14.30;10.00;;;;;;;13.90;86.47;99345.74;226268;1276;22570;-72
2023/09/15 00:07:29;;;;;;;10.60;9.50;;;;;;;13.93;86.54;99348.74;226006;1278;22560;-73
2023/09/15 00:12:32;;;;;;;11.80;9.60;;;;;;;13.98;86.59;99347.73;226039;1278;22544;-71
2023/09/15 00:17:35;;;;;;;10.20;8.50;;;;;;;14.04;86.74;99355.14;226219;1279;22549;-71
2023/09/15 00:22:37;;;;;;;9.90;8.90;;;;;;;14.09;86.64;99355.77;226018;1278;22548;-72
2023/09/15 00:27:39;;;;;;;10.40;8.30;;;;;;;14.15;86.75;99359.23;225945;1279;22545;-71
2023/09/15 00:32:42;;;;;;;10.30;8.80;;;;;;;14.20;86.77;99358.73;226290;1278;22542;-72
2023/09/15 00:37:46;;;;;;;10.30;8.80;;;;;;;14.24;86.73;99360.72;226054;1278;22543;-72
2023/09/15 00:42:50;;;;;;;9.30;8.40;;;;;;;14.24;86.57;99358.88;225948;1279;22536;-72
2023/09/15 00:47:58;;;;;;;10.00;8.70;;;;;;;14.22;86.63;99360.42;226037;1278;22574;-70
2023/09/15 00:53:09;;;;;;;12.20;9.30;;;;;;;14.19;86.72;99373.73;226257;1275;22540;-72
2023/09/15 00:58:11;;;;;;;12.40;8.90;;;;;;;14.18;86.69;99379.08;226197;1276;22591;-71
2023/09/15 01:03:18;;;;;;;11.10;9.40;;;;;;;14.18;86.86;99373.56;226010;1278;22559;-71
2023/09/15 01:08:22;;;;;;;12.70;10.10;;;;;;;14.19;87.04;99374.48;225941;1279;22543;-71
2023/09/15 01:13:24;;;;;;;10.90;9.50;;;;;;;14.21;87.13;99377.10;226212;1275;22559;-71
2023/09/15 01:18:38;;;;;;;12.10;9.10;;;;;;;14.19;86.93;99380.56;226224;1276;22558;-73
2023/09/15 01:24:11;;;;;;;9.90;8.90;;;;;;;14.12;86.84;99378.27;225977;1279;22544;-71
2023/09/15 01:29:40;;;;;;;11.60;10.40;;;;;;;14.02;87.04;99376.21;226114;1278;22545;-71
2023/09/15 01:34:48;;;;;;;11.00;9.40;;;;;;;13.95;87.28;99383.94;226257;1279;25210;-71
2023/09/15 01:39:52;;;;;;;12.90;10.40;;;;;;;13.87;87.45;99388.95;226111;1273;229950;-71
2023/09/15 01:44:55;;;;;;;11.40;9.70;;;;;;;13.79;87.39;99392.49;226193;1279;22646;-71
2023/09/15 01:49:58;;;;;;;11.10;9.90;;;;;;;13.70;87.43;99392.91;226159;1269;25455;-72
2023/09/15 01:55:03;;;;;;;13.20;10.80;;;;;;;13.61;87.57;99395.55;226222;1279;22536;-71
2023/09/15 02:00:07;;;;;;;12.90;10.50;;;;;;;13.53;87.74;99392.13;226022;1278;25272;-71
2023/09/15 02:05:25;;;;;;;14.10;10.50;;;;;;;13.47;87.96;99387.59;226197;1275;22542;-72
2023/09/15 02:10:27;;;;;;;11.90;10.60;;;;;;;13.42;88.12;99386.43;226198;1279;22555;-73
2023/09/15 02:15:29;;;;;;;13.10;10.40;;;;;;;13.36;88.27;99384.88;226185;1272;22555;-73
2023/09/15 02:20:31;;;;;;;12.40;10.60;;;;;;;13.30;88.22;99386.46;226182;1276;23068;-71
2023/09/15 02:25:36;;;;;;;13.90;11.20;;;;;;;13.26;88.11;99385.39;225884;1279;22585;-71
2023/09/15 02:30:39;;;;;;;12.80;11.50;;;;;;;13.23;88.36;99384.05;226215;1278;22577;-72
2023/09/15 02:35:41;;;;;;;12.60;11.20;;;;;;;13.20;88.75;99385.30;225995;1279;23041;-74
2023/09/15 02:40:42;;;;;;;14.00;11.80;;;;;;;13.19;88.61;99387.21;226249;1279;22548;-71
2023/09/15 02:45:45;;;;;;;14.60;11.60;;;;;;;13.18;88.73;99389.59;226178;1273;22563;-72
2023/09/15 02:50:47;;;;;;;12.80;11.50;;;;;;;13.19;88.78;99389.17;226213;1277;22570;-72
2023/09/15 02:55:56;;;;;;;17.50;15.50;;;;;;;13.20;88.98;99390.38;226210;1277;22662;-72
2023/09/15 03:01:09;;;;;;;15.20;11.30;;;;;;;13.21;89.09;99387.42;226171;1279;22555;-72
2023/09/15 03:06:12;;;;;;;12.60;10.20;;;;;;;13.23;88.95;99389.55;226035;1279;23312;-71
2023/09/15 03:11:17;;;;;;;11.50;9.10;;;;;;;13.23;88.99;99393.33;226032;1279;22556;-71
2023/09/15 03:16:20;;;;;;;11.20;9.90;;;;;;;13.26;89.20;99398.54;226116;1276;22528;-71
2023/09/15 03:21:22;;;;;;;12.50;10.80;;;;;;;13.30;89.08;99396.05;226229;1273;22553;-71
2023/09/15 03:26:24;;;;;;;10.70;9.60;;;;;;;13.35;89.19;99398.59;225958;1276;22555;-71
2023/09/15 03:31:27;;;;;;;11.40;9.20;;;;;;;13.39;89.20;99400.73;226181;1279;22547;-71
2023/09/15 03:36:30;;;;;;;12.70;10.00;;;;;;;13.44;89.14;99401.56;226211;1279;22556;-72
2023/09/15 03:41:33;;;;;;;11.50;9.60;;;;;;;13.50;89.30;99394.80;225989;1279;22527;-72
2023/09/15 03:46:35;;;;;;;13.90;10.20;;;;;;;13.55;89.36;99399.81;226059;1278;22540;-72
2023/09/15 03:51:37;;;;;;;13.90;9.70;;;;;;;13.59;89.13;99401.91;226194;1274;22553;-72
2023/09/15 03:56:39;;;;;;;12.70;10.30;;;;;;;13.64;89.06;99401.69;226066;1279;22451;-71
2023/09/15 04:01:41;;;;;;;13.20;10.30;;;;;;;13.69;89.27;99403.89;225999;1274;22647;-72
2023/09/15 04:06:44;;;;;;;12.00;10.60;;;;;;;13.74;89.07;99402.55;226143;1279;22541;-71
2023/09/15 04:11:46;;;;;;;13.30;11.00;;;;;;;13.80;89.14;99403.58;225931;1277;22747;-73
2023/09/15 04:16:47;;;;;;;12.60;11.30;;;;;;;13.85;89.26;99402.58;225900;1279;22540;-72
2023/09/15 04:21:50;;;;;;;14.30;10.60;;;;;;;13.90;89.14;99406.34;226062;1279;22608;-72
2023/09/15 04:26:52;;;;;;;11.80;10.60;;;;;;;13.95;89.03;99414.59;226294;1274;22560;-72
2023/09/15 04:31:55;;;;;;;15.50;11.50;;;;;;;14.01;88.89;99423.77;226283;1279;22543;-71
2023/09/15 04:36:57;;;;;;;12.80;10.90;;;;;;;14.07;89.21;99428.41;226078;1277;22558;-71
2023/09/15 04:41:59;;;;;;;17.40;12.20;;;;;;;14.14;89.09;99433.72;226161;1279;22557;-71
2023/09/15 04:47:01;;;;;;;12.60;10.80;;;;;;;14.19;88.99;99433.10;226005;1279;24825;-71
2023/09/15 04:52:05;;;;;;;15.60;10.40;;;;;;;14.25;88.84;99430.23;226327;1276;22551;-72
2023/09/15 04:57:08;;;;;;;14.70;11.60;;;;;;;14.30;88.65;99431.93;226311;1279;22536;-73
2023/09/15 05:02:10;;;;;;;14.40;11.80;;;;;;;14.35;88.71;99434.88;226236;1256;22592;-72
2023/09/15 05:07:13;;;;;;;11.60;10.40;;;;;;;14.43;88.87;99433.63;226247;1276;23669;-72
2023/09/15 05:12:18;;;;;;;13.10;11.10;;;;;;;14.50;88.75;99437.27;226073;1279;22568;-72
2023/09/15 05:17:22;;;;;;;15.50;11.30;;;;;;;14.59;88.66;99439.11;226023;1279;24281;-72
2023/09/15 05:22:25;;;;;;;12.40;11.10;;;;;;;14.68;88.62;99437.93;226207;1276;22544;-72
2023/09/15 05:27:28;;;;;;;12.40;10.70;;;;;;;14.79;88.57;99439.54;226242;1279;22638;-72
2023/09/15 05:32:31;;;;;;;13.70;11.00;;;;;;;14.93;88.54;99441.63;226092;1279;25274;-73
2023/09/15 05:37:33;;;;;;;12.70;11.30;;;;;;;15.08;88.60;99446.80;225954;1279;22547;-72
2023/09/15 05:42:35;;;;;;;14.10;11.50;;;;;;;15.24;88.34;99450.15;226048;1276;22543;-74
2023/09/15 05:47:37;;;;;;;14.10;12.30;;;;;;;15.42;88.38;99452.77;225813;1273;22546;-75
2023/09/15 05:52:41;;;;;;;15.20;11.10;;;;;;;15.59;87.85;99455.60;225882;1257;22583;-75
2023/09/15 05:57:43;;;;;;;12.20;10.00;;;;;;;15.76;87.65;99453.41;225807;1264;22544;-76
2023/09/15 06:02:45;;;;;;;11.70;9.50;;;;;;;15.92;87.45;99453.70;225949;1276;22528;-75
2023/09/15 06:07:52;;;;;;;11.20;9.50;;;;;;;16.11;87.35;99454.16;225539;1260;25194;-75
2023/09/15 06:12:55;;;;;;;11.70;9.60;;;;;;;16.33;87.13;99455.32;225785;1263;22545;-74
2023/09/15 06:17:57;;;;;;;11.50;9.20;;;;;;;16.53;86.70;99451.75;225939;1259;25344;-75
2023/09/15 06:23:00;;;;;;;11.30;9.40;;;;;;;16.69;86.50;99452.59;225369;1260;22566;-76
2023/09/15 06:28:02;;;;;;;13.30;9.80;;;;;;;16.80;86.33;99448.55;225185;1256;22541;-76
2023/09/15 06:33:22;;;;;;;13.50;11.30;;;;;;;16.87;86.10;99453.71;225417;1256;22562;-75
2023/09/15 06:38:24;;;;;;;12.40;11.10;;;;;;;16.95;86.07;99454.80;225529;1263;22561;-75
2023/09/15 06:43:27;;;;;;;12.10;9.60;;;;;;;17.02;85.72;99450.94;225581;1264;22549;-74
2023/09/15 06:48:29;;;;;;;10.10;8.50;;;;;;;17.06;85.37;99454.65;225564;1257;25800;-74
2023/09/15 06:53:31;;;;;;;9.50;8.50;;;;;;;17.14;85.51;99456.33;225698;1261;22939;-74
2023/09/15 06:58:33;;;;;;;8.80;7.40;;;;;;;17.27;85.60;99453.14;225751;1267;22598;-74
2023/09/15 07:03:37;;;;;;;8.30;7.40;;;;;;;17.42;85.29;99454.89;225766;1262;25590;-75
2023/09/15 07:08:40;;;;;;;7.80;6.70;;;;;;;17.58;85.05;99464.33;225936;1263;23349;-75
2023/09/15 07:13:42;;;;;;;9.30;7.10;;;;;;;17.70;84.39;99465.38;225770;1267;22640;-75
2023/09/15 07:18:44;;;;;;;8.20;7.40;;;;;;;17.95;84.41;99461.85;225340;1272;22534;-73
2023/09/15 07:23:46;;;;;;;9.80;7.80;;;;;;;18.16;83.66;99459.02;225526;1259;25243;-74
2023/09/15 07:28:48;;;;;;;8.70;7.80;;;;;;;18.40;83.10;99469.73;225439;1262;22537;-74
2023/09/15 07:33:51;;;;;;;10.10;9.10;;;;;;;18.63;82.50;99469.75;225553;1263;25318;-74
2023/09/15 07:38:53;;;;;;;9.20;7.50;;;;;;;18.80;81.87;99477.05;225578;1273;22592;-73
2023/09/15 07:44:00;;;;;;;8.20;7.40;;;;;;;18.89;81.13;99481.44;225882;1262;22899;-73
2023/09/15 07:49:02;;;;;;;8.80;6.90;;;;;;;18.92;80.74;99485.77;226330;1256;22529;-74
2023/09/15 07:54:04;;;;;;;7.80;7.00;;;;;;;19.04;80.52;99483.31;225713;1272;22541;-72
2023/09/15 07:59:07;;;;;;;7.10;5.80;;;;;;;19.21;79.85;99487.54;225728;1262;23254;-72
2023/09/15 08:04:09;;;;;;;5.80;5.20;;;;;;;19.37;79.56;99491.45;225893;1256;22550;-70
2023/09/15 08:09:12;;;;;;;5.60;4.60;;;;;;;19.45;78.99;99491.60;225861;1275;22561;-75
2023/09/15 08:14:14;;;;;;;4.80;4.30;;;;;;;19.55;78.65;99490.77;225825;1275;22526;-73
2023/09/15 08:19:16;;;;;;;5.40;4.10;;;;;;;19.71;78.23;99486.94;225781;1256;22589;-74
2023/09/15 08:24:20;;;;;;;5.10;3.50;;;;;;;19.92;78.00;99485.64;225487;1262;22576;-73
2023/09/15 08:29:22;;;;;;;4.00;3.60;;;;;;;20.02;77.28;99486.54;225827;1272;22543;-74
2023/09/15 08:34:24;;;;;;;5.40;3.60;;;;;;;19.94;76.76;99485.59;225947;1263;22557;-73
2023/09/15 08:39:26;;;;;;;4.00;3.50;;;;;;;19.95;76.78;99485.78;226063;1262;22545;-72
2023/09/15 08:44:32;;;;;;;3.80;3.40;;;;;;;19.94;76.16;99488.64;225962;1272;25237;-71
2023/09/15 08:49:36;;;;;;;2.80;2.50;;;;;;;19.91;75.94;99485.44;225584;1255;22560;-72
2023/09/15 08:54:38;;;;;;;3.80;3.00;;;;;;;19.98;75.30;99485.73;225617;1270;22957;-72
2023/09/15 08:59:41;;;;;;;3.30;3.00;;;;;;;20.14;75.08;99486.16;225773;1272;23080;-72
2023/09/15 09:04:43;;;;;;;3.90;2.60;;;;;;;20.39;75.19;99483.60;225956;1265;22562;-73
2023/09/15 09:09:47;;;;;;;2.60;2.10;;;;;;;20.69;74.23;99482.50;225979;1258;22526;-72
2023/09/15 09:14:54;;;;;;;3.10;2.30;;;;;;;20.93;73.20;99479.66;226031;1273;22567;-72
2023/09/15 09:19:57;;;;;;;2.50;2.30;;;;;;;21.09;72.39;99473.52;225973;1263;22598;-73
2023/09/15 09:24:59;;;;;;;3.00;2.10;;;;;;;21.31;72.03;99472.97;226044;1267;22546;-73
2023/09/15 09:30:03;;;;;;;2.70;1.60;;;;;;;21.56;70.88;99481.15;226125;1275;22555;-73
2023/09/15 09:35:05;;;;;;;2.80;1.80;;;;;;;21.70;70.55;99485.82;225814;1272;22537;-73
2023/09/15 09:40:08;;;;;;;2.30;2.00;;;;;;;21.79;69.09;99481.23;225791;1273;24596;-73
2023/09/15 09:45:12;;;;;;;3.50;2.70;;;;;;;21.73;68.25;99479.04;225805;1273;22533;-73
2023/09/15 09:50:14;;;;;;;3.00;2.60;;;;;;;21.87;68.29;99476.84;225907;1272;22549;-74
2023/09/15 09:55:16;;;;;;;3.40;2.70;;;;;;;22.04;67.44;99470.20;225981;1276;22548;-73
2023/09/15 10:00:18;;;;;;;3.20;2.70;;;;;;;22.30;67.12;99466.08;226134;1271;22533;-73
2023/09/15 10:05:22;;;;;;;3.80;3.10;;;;;;;22.54;66.57;99463.88;226027;1265;22593;-72
2023/09/15 10:10:26;;;;;;;3.80;3.40;;;;;;;22.87;66.39;99458.88;225968;1273;22724;-72
2023/09/15 10:15:29;;;;;;;6.00;3.50;;;;;;;22.92;65.74;99454.75;225980;1260;22530;-73
2023/09/15 10:20:33;;;;;;;4.90;3.90;;;;;;;22.90;65.17;99454.17;225886;1257;25399;-73
2023/09/15 10:25:42;;;;;;;3.90;3.10;;;;;;;22.75;64.67;99446.07;225712;1267;22701;-73
2023/09/15 10:30:45;;;;;;;4.90;3.30;;;;;;;22.41;64.32;99441.50;225901;1271;22531;-73
2023/09/15 10:35:48;;;;;;;4.60;3.40;;;;;;;22.13;64.79;99442.23;226039;1275;22523;-72
2023/09/15 10:40:51;;;;;;;3.90;3.50;;;;;;;22.18;65.22;99440.16;226002;1272;22556;-72
2023/09/15 10:45:57;;;;;;;3.10;2.80;;;;;;;22.34;64.94;99439.53;225821;1275;22561;-75
2023/09/15 10:51:08;;;;;;;3.90;3.40;;;;;;;22.41;63.75;99441.72;226143;1272;22573;-74
2023/09/15 10:56:15;;;;;;;2.60;2.40;;;;;;;22.36;63.68;99442.84;226175;1267;22529;-74
2023/09/15 11:01:18;;;;;;;4.70;2.50;;;;;;;22.44;64.26;99440.91;225969;1272;22566;-73
2023/09/15 11:06:28;;;;;;;2.90;2.70;;;;;;;22.64;63.84;99437.02;225810;1278;22540;-73
2023/09/15 11:11:31;;;;;;;3.80;3.00;;;;;;;22.65;63.60;99435.24;225616;1263;22559;-73
2023/09/15 11:16:34;;;;;;;2.50;2.30;;;;;;;22.70;63.83;99436.61;225790;1271;22536;-73
2023/09/15 11:21:36;;;;;;;2.50;2.30;;;;;;;22.78;63.01;99437.26;225804;1262;22714;-73
2023/09/15 11:26:50;;;;;;;2.60;2.40;;;;;;;23.00;62.56;99436.13;225763;1272;22590;-73
2023/09/15 11:31:54;;;;;;;3.60;2.50;;;;;;;23.11;61.50;99438.09;225868;1272;23098;-73
2023/09/15 11:36:59;;;;;;;5.20;2.50;;;;;;;23.06;61.09;99430.41;226092;1262;22562;-72
2023/09/15 11:42:10;;;;;;;4.10;2.40;;;;;;;23.01;61.30;99430.35;225985;1256;22540;-72
2023/09/15 11:47:12;;;;;;;2.50;2.20;;;;;;;22.90;60.62;99427.23;226008;1256;22567;-73
2023/09/15 11:52:15;;;;;;;3.50;2.40;;;;;;;22.79;60.83;99422.79;225644;1278;22572;-74
2023/09/15 11:57:17;;;;;;;3.20;2.90;;;;;;;22.82;60.90;99423.58;225856;1263;25567;-74
2023/09/15 12:02:20;;;;;;;3.30;2.60;;;;;;;22.93;61.14;99418.04;225837;1278;22630;-73
2023/09/15 12:07:23;;;;;;;4.00;2.40;;;;;;;22.92;60.80;99415.28;226067;1278;25043;-73
2023/09/15 12:12:25;;;;;;;3.00;2.50;;;;;;;22.90;60.43;99408.04;225810;1259;22576;-74
2023/09/15 12:17:28;;;;;;;3.60;2.70;;;;;;;22.95;60.77;99405.36;226032;1262;22552;-74
2023/09/15 12:22:31;;;;;;;4.60;2.60;;;;;;;22.98;60.88;99396.86;226223;1272;22534;-73
2023/09/15 12:27:33;;;;;;;2.80;2.50;;;;;;;23.11;60.64;99398.08;226011;1256;25428;-74
2023/09/15 12:32:36;;;;;;;3.60;2.70;;;;;;;23.21;59.60;99393.27;225803;1271;22588;-73
2023/09/15 12:37:44;;;;;;;3.30;2.70;;;;;;;23.30;59.32;99391.98;225888;1266;22620;-74
2023/09/15 12:42:46;;;;;;;4.60;2.40;;;;;;;23.52;59.18;99392.70;225716;1267;22661;-73
2023/09/15 12:47:48;;;;;;;3.70;2.20;;;;;;;23.89;58.69;99398.39;225868;1256;22594;-73
2023/09/15 12:52:50;;;;;;;2.30;2.10;;;;;;;24.02;57.24;99393.51;225954;1259;22696;-73
2023/09/15 12:57:52;;;;;;;6.20;5.60;;;;;;;23.85;56.88;99393.50;225511;1256;22661;-73
2023/09/15 13:02:54;;;;;;;2.60;2.40;;;;;;;23.67;56.92;99389.65;225416;1256;22665;-73
2023/09/15 13:07:56;;;;;;;2.40;2.10;;;;;;;23.55;57.23;99386.48;225855;1256;22547;-78
2023/09/15 13:12:58;;;;;;;3.10;2.60;;;;;;;23.47;57.59;99381.08;225743;1271;22583;-80
2023/09/15 13:18:00;;;;;;;3.40;2.40;;;;;;;23.37;57.54;99370.48;225986;1269;22591;-74
2023/09/15 13:23:03;;;;;;;2.90;2.50;;;;;;;23.49;57.49;99366.45;226004;1259;22633;-73
2023/09/15 13:28:05;;;;;;;2.70;2.50;;;;;;;23.75;57.47;99363.85;225851;1275;25295;-74
2023/09/15 13:33:07;;;;;;;2.90;2.60;;;;;;;23.80;56.54;99356.44;225743;1265;138236;-73
2023/09/15 13:38:09;;;;;;;2.90;2.60;;;;;;;23.53;56.43;99351.48;225850;1272;22536;-73
2023/09/15 13:43:11;;;;;;;3.10;2.50;;;;;;;23.36;57.01;99344.41;225402;1272;137155;-74
2023/09/15 13:48:15;;;;;;;4.30;2.60;;;;;;;23.32;57.22;99335.59;225375;1259;137379;-77
2023/09/15 13:53:18;;;;;;;3.80;2.50;;;;;;;23.41;57.04;99329.46;225485;1260;137529;-76
2023/09/15 13:58:20;;;;;;;2.70;2.50;;;;;;;23.54;56.66;99323.92;225573;1266;138283;-77
2023/09/15 14:03:23;;;;;;;4.80;2.80;;;;;;;23.60;55.33;99326.52;225342;1279;137405;-74
2023/09/15 14:08:25;;;;;;;4.00;2.50;;;;;;;23.31;55.13;99322.48;225126;1272;22917;-74
2023/09/15 14:13:27;;;;;;;2.90;2.60;;;;;;;22.94;55.72;99322.10;225233;1280;22540;-73
2023/09/15 14:18:29;;;;;;;2.60;2.30;;;;;;;22.80;56.28;99320.04;225431;1276;137016;-74
2023/09/15 14:23:31;;;;;;;2.60;2.30;;;;;;;22.85;56.36;99313.50;225668;1275;150196;-73
2023/09/15 14:28:33;;;;;;;4.50;2.20;;;;;;;22.95;56.07;99309.66;225969;1276;137362;-74
2023/09/15 14:33:35;;;;;;;3.60;2.30;;;;;;;23.10;55.85;99309.00;226042;1278;137406;-74
2023/09/15 14:38:37;;;;;;;4.40;2.60;;;;;;;23.21;55.77;99308.11;226112;1272;137440;-74
2023/09/15 14:43:41;;;;;;;3.60;2.40;;;;;;;23.27;55.57;99302.13;226135;1275;22561;-74
2023/09/15 14:48:49;;;;;;;4.10;2.30;;;;;;;23.19;55.51;99295.86;225880;1280;137056;-74
2023/09/15 14:53:52;;;;;;;3.10;2.60;;;;;;;23.03;55.83;99292.21;226056;1280;137466;-74
2023/09/15 14:58:54;;;;;;;3.90;2.30;;;;;;;22.94;55.58;99284.98;226060;1276;137349;-74
2023/09/15 15:03:56;;;;;;;4.70;2.30;;;;;;;22.81;55.55;99277.79;226088;1278;137407;-74
2023/09/15 15:08:58;;;;;;;4.10;2.40;;;;;;;22.67;55.38;99276.48;225929;1279;137903;-74
2023/09/15 15:14:00;;;;;;;3.40;2.40;;;;;;;22.48;55.63;99276.52;226174;1269;22540;-74
2023/09/15 15:19:03;;;;;;;3.40;2.50;;;;;;;22.22;56.17;99282.79;226034;1278;136990;-73
2023/09/15 15:24:07;;;;;;;2.40;2.00;;;;;;;22.06;56.82;99284.59;226031;1275;138256;-74
2023/09/15 15:29:09;;;;;;;3.20;2.20;;;;;;;21.97;57.18;99279.28;226103;1277;137475;-74
2023/09/15 15:34:11;;;;;;;2.10;1.90;;;;;;;21.93;57.07;99276.31;225836;1279;137605;-74
2023/09/15 15:39:15;;;;;;;3.30;1.70;;;;;;;21.85;57.03;99273.84;226041;1278;138909;-74
2023/09/15 15:44:17;;;;;;;3.90;1.60;;;;;;;21.74;57.12;99285.38;226054;1275;22650;-74
2023/09/15 15:49:19;;;;;;;2.20;1.80;;;;;;;21.61;57.24;99280.50;226009;1275;137486;-74
2023/09/15 15:54:21;;;;;;;2.90;1.80;;;;;;;21.43;57.50;99276.69;226016;1280;137227;-74
2023/09/15 15:59:23;;;;;;;2.10;1.90;;;;;;;21.26;58.02;99270.03;225923;1268;138023;-74
2023/09/15 16:04:25;;;;;;;7.10;5.20;;;;;;;21.08;58.58;99267.56;226096;1280;137573;-74
2023/09/15 16:09:29;;;;;;;3.80;2.10;;;;;;;20.88;59.12;99266.52;226066;1280;138166;-75
2023/09/15 16:14:32;;;;;;;3.80;1.90;;;;;;;20.67;59.58;99269.45;226097;1273;137395;-74
2023/09/15 16:19:34;;;;;;;2.30;1.70;;;;;;;20.51;60.10;99269.73;226150;1272;22542;-75
2023/09/15 16:24:36;;;;;;;2.50;1.70;;;;;;;20.31;60.45;99266.86;226073;1278;137456;-74
2023/09/15 16:29:38;;;;;;;2.00;1.80;;;;;;;20.09;61.05;99269.59;226061;1278;137384;-75
2023/09/15 16:34:42;;;;;;;2.20;2.00;;;;;;;19.90;61.48;99265.39;225928;1280;138279;-74
2023/09/15 16:39:44;;;;;;;2.80;2.00;;;;;;;19.68;61.94;99270.13;225863;1280;137528;-74
2023/09/15 16:44:46;;;;;;;2.10;1.90;;;;;;;19.48;62.60;99276.73;226100;1279;137435;-74
2023/09/15 16:49:48;;;;;;;6.20;2.30;;;;;;;19.24;63.18;99278.89;226155;1278;22544;-74
2023/09/15 16:54:50;;;;;;;3.40;2.20;;;;;;;19.02;63.81;99286.50;226083;1275;137193;-74
2023/09/15 16:59:55;;;;;;;4.60;2.70;;;;;;;18.80;64.28;99295.83;225995;1276;137210;-74
2023/09/15 17:04:57;;;;;;;3.20;2.00;;;;;;;18.56;64.89;99299.68;226013;1275;137360;-73
2023/09/15 17:10:00;;;;;;;3.30;2.10;;;;;;;18.33;65.40;99305.45;226063;1275;138840;-74
2023/09/15 17:15:04;;;;;;;3.80;2.40;;;;;;;18.07;65.84;99309.13;226120;1277;138343;-74
2023/09/15 17:20:06;;;;;;;3.90;2.50;;;;;;;17.87;66.42;99311.01;226212;1275;25271;-75
2023/09/15 17:25:10;;;;;;;4.10;2.50;;;;;;;17.70;66.76;99314.13;226104;1275;138980;-73
2023/09/15 17:30:16;;;;;;;4.00;2.40;;;;;;;17.50;67.23;99314.59;225995;1277;138007;-74
2023/09/15 17:35:18;;;;;;;4.80;2.40;;;;;;;17.32;67.58;99315.07;226102;1280;139021;-74
2023/09/15 17:40:20;;;;;;;3.70;2.70;;;;;;;17.15;68.17;99314.14;225994;1275;138249;-74
2023/09/15 17:45:23;;;;;;;4.80;2.60;;;;;;;16.98;68.26;99322.88;226064;1273;138127;-73
2023/09/15 17:50:25;;;;;;;4.80;3.00;;;;;;;16.83;68.89;99329.30;226235;1275;24007;-73
2023/09/15 17:55:27;;;;;;;5.30;3.00;;;;;;;16.71;69.20;99327.65;226076;1280;138369;-73
2023/09/15 18:00:29;;;;;;;3.60;3.10;;;;;;;16.58;69.28;99329.38;225965;1263;138027;-73
2023/09/15 18:05:33;;;;;;;6.50;3.70;;;;;;;16.45;69.83;99337.60;226126;1276;138059;-74
2023/09/15 18:10:36;;;;;;;4.60;3.60;;;;;;;16.34;70.15;99337.65;226076;1275;138177;-74
2023/09/15 18:15:38;;;;;;;4.60;3.40;;;;;;;16.21;70.28;99339.20;226018;1269;138104;-74
2023/09/15 18:20:40;;;;;;;4.30;3.10;;;;;;;16.07;70.80;99342.38;225949;1278;138038;-73
2023/09/15 18:25:42;;;;;;;3.60;2.90;;;;;;;15.97;70.98;99346.46;226161;1278;22604;-74
2023/09/15 18:30:44;;;;;;;5.80;3.70;;;;;;;15.88;71.37;99348.08;226076;1279;137849;-74
2023/09/15 18:35:50;;;;;;;7.60;4.00;;;;;;;15.78;71.56;99347.80;225912;1279;138185;-74
2023/09/15 18:40:52;;;;;;;41.30;4.90;;;;;;;15.67;71.52;99349.02;225883;1278;138396;-74
2023/09/15 18:45:55;;;;;;;5.80;3.40;;;;;;;15.56;71.88;99347.41;225988;1278;138168;-73
2023/09/15 18:50:58;;;;;;;6.90;3.80;;;;;;;15.46;72.06;99350.17;226039;1276;138309;-74
2023/09/15 18:56:00;;;;;;;3.70;3.40;;;;;;;15.36;72.68;99352.89;226165;1279;22570;-74
2023/09/15 19:01:03;;;;;;;6.80;4.10;;;;;;;15.26;73.00;99359.52;226024;1279;137743;-74
2023/09/15 19:06:06;;;;;;;4.80;4.20;;;;;;;15.16;73.41;99360.48;226041;1276;137971;-74
2023/09/15 19:11:08;;;;;;;5.80;4.30;;;;;;;15.05;73.43;99356.13;226043;1275;138135;-75
2023/09/15 19:16:14;;;;;;;5.50;4.00;;;;;;;14.93;73.82;99357.75;225899;1278;138492;-74
2023/09/15 19:21:24;;;;;;;6.20;4.60;;;;;;;14.84;74.28;99354.73;226000;1278;138223;-74
2023/09/15 19:26:25;;;;;;;6.50;4.70;;;;;;;14.73;74.15;99355.45;226111;1278;22526;-74
2023/09/15 19:31:27;;;;;;;5.20;4.20;;;;;;;14.61;74.63;99356.77;226086;1278;137720;-74
2023/09/15 19:36:29;;;;;;;7.10;3.80;;;;;;;14.52;74.47;99356.20;225964;1278;137916;-75
2023/09/15 19:41:31;;;;;;;5.60;3.60;;;;;;;14.44;74.83;99354.69;226101;1272;138372;-74
2023/09/15 19:46:35;;;;;;;6.90;3.80;;;;;;;14.36;74.73;99354.39;226051;1278;138406;-75
2023/09/15 19:51:38;;;;;;;5.50;3.80;;;;;;;14.25;74.94;99352.95;226049;1273;138050;-75
2023/09/15 19:56:40;;;;;;;5.60;4.00;;;;;;;14.21;75.35;99357.43;225959;1278;139560;-75
2023/09/15 20:01:42;;;;;;;5.30;4.20;;;;;;;14.15;75.10;99357.40;225910;1278;22535;-75
2023/09/15 20:06:44;;;;;;;4.60;3.80;;;;;;;14.12;75.47;99360.48;226093;1280;138417;-75
2023/09/15 20:11:46;;;;;;;5.40;4.30;;;;;;;14.10;75.77;99363.38;226063;1276;138065;-75
2023/09/15 20:16:57;;;;;;;5.80;4.00;;;;;;;14.05;75.68;99362.05;226061;1275;138312;-75
2023/09/15 20:21:59;;;;;;;7.40;3.90;;;;;;;13.99;75.71;99361.23;226075;1276;138168;-74
2023/09/15 20:27:01;;;;;;;7.80;3.90;;;;;;;13.92;75.90;99354.55;225957;1279;138045;-74
2023/09/15 20:32:03;;;;;;;5.10;3.70;;;;;;;13.90;75.79;99353.30;226148;1278;22537;-74
2023/09/15 20:37:07;;;;;;;5.90;3.50;;;;;;;13.89;75.93;99356.89;226016;1279;137687;-75
2023/09/15 20:42:09;;;;;;;4.70;3.60;;;;;;;13.87;75.98;99356.34;225995;1278;137947;-75
2023/09/15 20:47:12;;;;;;;5.70;4.40;;;;;;;13.80;75.84;99353.84;226088;1275;138293;-75
2023/09/15 20:52:14;;;;;;;7.70;3.90;;;;;;;13.77;75.86;99357.06;225991;1280;140247;-75
2023/09/15 20:57:16;;;;;;;3.90;3.30;;;;;;;13.69;75.99;99356.21;226067;1279;138169;-74
2023/09/15 21:02:18;;;;;;;11.70;4.10;;;;;;;13.64;76.14;99357.13;226068;1280;22616;-75
2023/09/15 21:07:20;;;;;;;4.90;3.70;;;;;;;13.56;76.07;99351.67;226033;1260;137990;-74
2023/09/15 21:12:23;;;;;;;5.60;3.90;;;;;;;13.52;76.35;99345.67;226077;1279;138055;-74
2023/09/15 21:17:26;;;;;;;4.70;3.40;;;;;;;13.49;76.44;99344.11;226117;1280;138079;-76
2023/09/15 21:22:28;;;;;;;7.10;3.90;;;;;;;13.44;76.39;99340.64;226064;1278;138082;-75
2023/09/15 21:27:29;;;;;;;5.70;4.10;;;;;;;13.38;76.56;99338.34;226084;1276;138201;-74
2023/09/15 21:32:38;;;;;;;5.10;3.80;;;;;;;13.32;76.65;99340.25;225964;1280;138048;-74
2023/09/15 21:37:41;;;;;;;10.10;4.30;;;;;;;13.26;76.78;99340.44;226224;1278;22570;-74
2023/09/15 21:42:43;;;;;;;6.30;4.00;;;;;;;13.21;77.06;99339.75;226132;1273;137917;-74
2023/09/15 21:47:45;;;;;;;7.30;4.10;;;;;;;13.16;77.29;99339.23;226197;1280;138052;-73
2023/09/15 21:52:47;;;;;;;5.10;3.80;;;;;;;13.15;77.56;99335.85;226122;1272;138477;-74
2023/09/15 21:57:49;;;;;;;5.20;3.80;;;;;;;13.11;77.36;99335.75;226016;1280;138784;-74
2023/09/15 22:02:57;;;;;;;6.70;3.80;;;;;;;13.06;77.43;99333.88;226136;1275;138217;-75
2023/09/15 22:08:02;;;;;;;5.20;3.50;;;;;;;13.00;77.52;99332.02;226154;1278;25402;-74
2023/09/15 22:13:04;;;;;;;6.10;3.90;;;;;;;12.94;77.75;99330.77;225920;1278;137929;-75
2023/09/15 22:18:08;;;;;;;5.20;3.70;;;;;;;12.89;77.87;99329.27;226133;1276;138063;-74
2023/09/15 22:23:10;;;;;;;5.70;3.60;;;;;;;12.85;77.92;99322.86;226125;1276;138877;-75
2023/09/15 22:28:13;;;;;;;5.30;3.90;;;;;;;12.85;78.20;99315.31;225858;1280;138095;-74
2023/09/15 22:33:16;;;;;;;4.70;3.50;;;;;;;12.84;78.39;99317.67;226158;1278;138639;-74
2023/09/15 22:38:18;;;;;;;5.70;3.80;;;;;;;12.84;78.40;99310.16;226204;1276;24262;-75
2023/09/15 22:43:20;;;;;;;5.90;3.50;;;;;;;12.81;78.40;99310.83;225862;1280;138478;-75
2023/09/15 22:48:22;;;;;;;6.20;4.00;;;;;;;12.76;78.34;99308.52;226016;1280;137984;-74
2023/09/15 22:53:24;;;;;;;5.40;4.10;;;;;;;12.67;78.43;99300.27;225934;1279;138019;-74
2023/09/15 22:58:26;;;;;;;5.80;3.70;;;;;;;12.58;78.61;99298.12;226053;1280;138126;-74
2023/09/15 23:03:28;;;;;;;5.30;3.70;;;;;;;12.50;78.59;99300.74;225980;1273;138687;-75
2023/09/15 23:08:30;;;;;;;5.70;4.20;;;;;;;12.45;78.87;99297.73;225817;1278;138306;-74
2023/09/15 23:13:34;;;;;;;6.40;3.80;;;;;;;12.41;79.04;99297.56;226069;1280;22630;-74
2023/09/15 23:18:36;;;;;;;7.20;4.10;;;;;;;12.40;79.25;99300.59;226060;1276;137728;-74